sensor_id;sensor_type;location;lat;lon;timestamp;temperature;humidity
19248;DHT22;9758;48.640;8.148;2024-02-14T00:01:00;10.00;58.30
19248;DHT22;9758;48.640;8.148;2024-02-14T00:03:27;10.00;58.30
19248;DHT22;9758;48.640;8.148;2024-02-14T00:05:54;10.10;58.30
19248;DHT22;9758;48.640;8.148;2024-02-14T00:08:21;10.20;58.20
19248;DHT22;9758;48.640;8.148;2024-02-14T00:10:48;10.20;58.10
19248;DHT22;9758;48.640;8.148;2024-02-14T00:13:16;10.30;58.00
19248;DHT22;9758;48.640;8.148;2024-02-14T00:15:43;10.30;58.00
19248;DHT22;9758;48.640;8.148;2024-02-14T00:18:11;10.30;58.00
19248;DHT22;9758;48.640;8.148;2024-02-14T00:20:38;10.40;58.10
19248;DHT22;9758;48.640;8.148;2024-02-14T00:23:05;10.40;58.00
19248;DHT22;9758;48.640;8.148;2024-02-14T00:25:32;10.40;58.00
19248;DHT22;9758;48.640;8.148;2024-02-14T00:27:59;10.40;58.00
19248;DHT22;9758;48.640;8.148;2024-02-14T00:30:27;10.50;58.10
19248;DHT22;9758;48.640;8.148;2024-02-14T00:32:54;10.50;58.20
19248;DHT22;9758;48.640;8.148;2024-02-14T00:35:21;10.50;58.10
19248;DHT22;9758;48.640;8.148;2024-02-14T00:37:48;10.50;58.20
19248;DHT22;9758;48.640;8.148;2024-02-14T00:40:15;10.50;58.10
19248;DHT22;9758;48.640;8.148;2024-02-14T00:42:41;10.40;58.20
19248;DHT22;9758;48.640;8.148;2024-02-14T00:45:09;10.40;58.20
19248;DHT22;9758;48.640;8.148;2024-02-14T00:47:37;10.40;58.30
19248;DHT22;9758;48.640;8.148;2024-02-14T00:50:05;10.40;58.30
19248;DHT22;9758;48.640;8.148;2024-02-14T00:52:31;10.40;58.40
19248;DHT22;9758;48.640;8.148;2024-02-14T00:54:58;10.30;58.40
19248;DHT22;9758;48.640;8.148;2024-02-14T00:57:28;10.30;58.40
19248;DHT22;9758;48.640;8.148;2024-02-14T00:59:56;10.30;58.40
19248;DHT22;9758;48.640;8.148;2024-02-14T01:02:24;10.30;58.50
19248;DHT22;9758;48.640;8.148;2024-02-14T01:04:53;10.20;58.40
19248;DHT22;9758;48.640;8.148;2024-02-14T01:07:19;10.20;58.50
19248;DHT22;9758;48.640;8.148;2024-02-14T01:09:46;10.20;59.10
19248;DHT22;9758;48.640;8.148;2024-02-14T01:12:13;10.20;58.50
19248;DHT22;9758;48.640;8.148;2024-02-14T01:14:40;10.20;58.40
19248;DHT22;9758;48.640;8.148;2024-02-14T01:17:07;10.20;58.50
19248;DHT22;9758;48.640;8.148;2024-02-14T01:19:34;10.30;58.50
19248;DHT22;9758;48.640;8.148;2024-02-14T01:22:03;10.30;58.50
19248;DHT22;9758;48.640;8.148;2024-02-14T01:24:29;10.30;58.40
19248;DHT22;9758;48.640;8.148;2024-02-14T01:26:56;10.30;58.30
19248;DHT22;9758;48.640;8.148;2024-02-14T01:29:23;10.30;58.30
19248;DHT22;9758;48.640;8.148;2024-02-14T01:31:50;10.40;58.20
19248;DHT22;9758;48.640;8.148;2024-02-14T01:34:17;10.40;58.30
19248;DHT22;9758;48.640;8.148;2024-02-14T01:36:43;10.40;58.30
19248;DHT22;9758;48.640;8.148;2024-02-14T01:39:11;10.50;58.30
19248;DHT22;9758;48.640;8.148;2024-02-14T01:41:38;10.50;58.20
19248;DHT22;9758;48.640;8.148;2024-02-14T01:44:05;10.50;58.20
19248;DHT22;9758;48.640;8.148;2024-02-14T01:46:32;10.50;58.10
19248;DHT22;9758;48.640;8.148;2024-02-14T01:48:59;10.60;58.00
19248;DHT22;9758;48.640;8.148;2024-02-14T01:51:26;10.60;58.10
19248;DHT22;9758;48.640;8.148;2024-02-14T01:53:54;10.60;58.10
19248;DHT22;9758;48.640;8.148;2024-02-14T01:56:22;10.60;58.00
19248;DHT22;9758;48.640;8.148;2024-02-14T01:58:50;10.70;58.10
19248;DHT22;9758;48.640;8.148;2024-02-14T02:01:18;10.70;58.00
19248;DHT22;9758;48.640;8.148;2024-02-14T02:03:44;10.70;57.90
19248;DHT22;9758;48.640;8.148;2024-02-14T02:06:11;10.70;57.90
19248;DHT22;9758;48.640;8.148;2024-02-14T02:08:38;10.70;57.80
19248;DHT22;9758;48.640;8.148;2024-02-14T02:11:05;10.70;57.70
19248;DHT22;9758;48.640;8.148;2024-02-14T02:13:33;10.70;57.60
19248;DHT22;9758;48.640;8.148;2024-02-14T02:16:00;10.70;57.70
19248;DHT22;9758;48.640;8.148;2024-02-14T02:18:30;10.70;57.40
19248;DHT22;9758;48.640;8.148;2024-02-14T02:20:57;10.60;57.50
19248;DHT22;9758;48.640;8.148;2024-02-14T02:23:25;10.60;57.50
19248;DHT22;9758;48.640;8.148;2024-02-14T02:25:52;10.60;57.50
19248;DHT22;9758;48.640;8.148;2024-02-14T02:28:19;10.50;57.60
19248;DHT22;9758;48.640;8.148;2024-02-14T02:30:45;10.50;57.60
19248;DHT22;9758;48.640;8.148;2024-02-14T02:33:12;10.50;57.70
19248;DHT22;9758;48.640;8.148;2024-02-14T02:35:41;10.50;57.80
19248;DHT22;9758;48.640;8.148;2024-02-14T02:38:10;10.60;57.70
19248;DHT22;9758;48.640;8.148;2024-02-14T02:40:38;10.50;57.80
19248;DHT22;9758;48.640;8.148;2024-02-14T02:43:05;10.60;57.70
19248;DHT22;9758;48.640;8.148;2024-02-14T02:45:32;10.60;57.70
19248;DHT22;9758;48.640;8.148;2024-02-14T02:47:59;10.60;57.60
19248;DHT22;9758;48.640;8.148;2024-02-14T02:50:26;10.70;57.70
19248;DHT22;9758;48.640;8.148;2024-02-14T02:52:53;10.70;57.70
19248;DHT22;9758;48.640;8.148;2024-02-14T02:55:20;10.70;57.70
19248;DHT22;9758;48.640;8.148;2024-02-14T02:57:48;10.80;57.60
19248;DHT22;9758;48.640;8.148;2024-02-14T03:00:16;10.80;57.30
19248;DHT22;9758;48.640;8.148;2024-02-14T03:02:46;10.80;57.40
19248;DHT22;9758;48.640;8.148;2024-02-14T03:05:14;10.90;57.50
19248;DHT22;9758;48.640;8.148;2024-02-14T03:07:44;10.90;57.40
19248;DHT22;9758;48.640;8.148;2024-02-14T03:10:13;10.90;58.10
19248;DHT22;9758;48.640;8.148;2024-02-14T03:12:40;11.00;57.40
19248;DHT22;9758;48.640;8.148;2024-02-14T03:15:09;11.00;57.40
19248;DHT22;9758;48.640;8.148;2024-02-14T03:17:36;11.00;57.30
19248;DHT22;9758;48.640;8.148;2024-02-14T03:20:04;11.10;57.20
19248;DHT22;9758;48.640;8.148;2024-02-14T03:22:35;11.10;57.30
19248;DHT22;9758;48.640;8.148;2024-02-14T03:25:02;11.10;57.30
19248;DHT22;9758;48.640;8.148;2024-02-14T03:27:29;11.10;57.30
19248;DHT22;9758;48.640;8.148;2024-02-14T03:29:56;11.10;57.10
19248;DHT22;9758;48.640;8.148;2024-02-14T03:32:26;11.10;56.70
19248;DHT22;9758;48.640;8.148;2024-02-14T03:34:53;11.10;57.10
19248;DHT22;9758;48.640;8.148;2024-02-14T03:37:20;11.10;57.10
19248;DHT22;9758;48.640;8.148;2024-02-14T03:39:46;11.20;57.00
19248;DHT22;9758;48.640;8.148;2024-02-14T03:42:13;11.20;57.20
19248;DHT22;9758;48.640;8.148;2024-02-14T03:44:41;11.20;57.20
19248;DHT22;9758;48.640;8.148;2024-02-14T03:47:08;11.20;57.00
19248;DHT22;9758;48.640;8.148;2024-02-14T03:49:36;11.20;57.00
19248;DHT22;9758;48.640;8.148;2024-02-14T03:52:03;11.20;56.90
19248;DHT22;9758;48.640;8.148;2024-02-14T03:54:35;11.20;56.90
19248;DHT22;9758;48.640;8.148;2024-02-14T03:57:02;11.30;57.00
19248;DHT22;9758;48.640;8.148;2024-02-14T03:59:30;11.30;57.20
19248;DHT22;9758;48.640;8.148;2024-02-14T04:01:58;11.30;56.60
19248;DHT22;9758;48.640;8.148;2024-02-14T04:04:25;11.30;56.60
19248;DHT22;9758;48.640;8.148;2024-02-14T04:06:53;11.30;56.70
19248;DHT22;9758;48.640;8.148;2024-02-14T04:09:19;11.30;56.90
19248;DHT22;9758;48.640;8.148;2024-02-14T04:11:46;11.30;56.80
19248;DHT22;9758;48.640;8.148;2024-02-14T04:14:14;11.40;56.60
19248;DHT22;9758;48.640;8.148;2024-02-14T04:16:41;11.40;56.50
19248;DHT22;9758;48.640;8.148;2024-02-14T04:19:08;11.40;56.70
19248;DHT22;9758;48.640;8.148;2024-02-14T04:21:36;11.40;56.70
19248;DHT22;9758;48.640;8.148;2024-02-14T04:24:05;11.40;56.60
19248;DHT22;9758;48.640;8.148;2024-02-14T04:26:33;11.40;56.60
19248;DHT22;9758;48.640;8.148;2024-02-14T04:29:00;11.50;56.20
19248;DHT22;9758;48.640;8.148;2024-02-14T04:31:27;11.50;56.50
19248;DHT22;9758;48.640;8.148;2024-02-14T04:33:55;11.50;56.60
19248;DHT22;9758;48.640;8.148;2024-02-14T04:36:22;11.50;56.40
19248;DHT22;9758;48.640;8.148;2024-02-14T04:38:50;11.50;57.00
19248;DHT22;9758;48.640;8.148;2024-02-14T04:41:18;11.50;56.60
19248;DHT22;9758;48.640;8.148;2024-02-14T04:43:45;11.50;56.60
19248;DHT22;9758;48.640;8.148;2024-02-14T04:46:12;11.60;56.00
19248;DHT22;9758;48.640;8.148;2024-02-14T04:48:38;11.60;56.30
19248;DHT22;9758;48.640;8.148;2024-02-14T04:51:05;11.60;56.50
19248;DHT22;9758;48.640;8.148;2024-02-14T04:53:32;11.50;56.50
19248;DHT22;9758;48.640;8.148;2024-02-14T04:55:59;11.60;56.60
19248;DHT22;9758;48.640;8.148;2024-02-14T04:58:27;11.60;56.30
19248;DHT22;9758;48.640;8.148;2024-02-14T05:00:54;11.60;56.10
19248;DHT22;9758;48.640;8.148;2024-02-14T05:03:22;11.60;56.40
19248;DHT22;9758;48.640;8.148;2024-02-14T05:05:49;11.60;56.10
19248;DHT22;9758;48.640;8.148;2024-02-14T05:08:16;11.60;56.40
19248;DHT22;9758;48.640;8.148;2024-02-14T05:10:43;11.70;56.20
19248;DHT22;9758;48.640;8.148;2024-02-14T05:13:11;11.70;56.40
19248;DHT22;9758;48.640;8.148;2024-02-14T05:15:39;11.70;56.20
19248;DHT22;9758;48.640;8.148;2024-02-14T05:18:07;11.70;56.30
19248;DHT22;9758;48.640;8.148;2024-02-14T05:20:35;11.70;56.30
19248;DHT22;9758;48.640;8.148;2024-02-14T05:23:03;11.70;56.30
19248;DHT22;9758;48.640;8.148;2024-02-14T05:25:30;11.80;56.30
19248;DHT22;9758;48.640;8.148;2024-02-14T05:27:58;11.80;56.20
19248;DHT22;9758;48.640;8.148;2024-02-14T05:30:26;11.80;56.30
19248;DHT22;9758;48.640;8.148;2024-02-14T05:32:54;11.80;56.30
19248;DHT22;9758;48.640;8.148;2024-02-14T05:35:22;11.90;56.30
19248;DHT22;9758;48.640;8.148;2024-02-14T05:37:49;11.90;56.10
19248;DHT22;9758;48.640;8.148;2024-02-14T05:40:17;11.90;56.00
19248;DHT22;9758;48.640;8.148;2024-02-14T05:42:43;11.90;56.20
19248;DHT22;9758;48.640;8.148;2024-02-14T05:45:10;11.90;56.20
19248;DHT22;9758;48.640;8.148;2024-02-14T05:47:37;11.90;55.40
19248;DHT22;9758;48.640;8.148;2024-02-14T05:50:07;11.90;56.10
19248;DHT22;9758;48.640;8.148;2024-02-14T05:52:37;11.90;56.20
19248;DHT22;9758;48.640;8.148;2024-02-14T05:55:05;11.90;56.10
19248;DHT22;9758;48.640;8.148;2024-02-14T05:57:31;11.90;56.10
19248;DHT22;9758;48.640;8.148;2024-02-14T05:59:58;11.90;56.00
19248;DHT22;9758;48.640;8.148;2024-02-14T06:02:25;12.00;56.10
19248;DHT22;9758;48.640;8.148;2024-02-14T06:04:52;12.00;56.20
19248;DHT22;9758;48.640;8.148;2024-02-14T06:07:20;12.00;56.00
19248;DHT22;9758;48.640;8.148;2024-02-14T06:09:47;12.00;56.20
19248;DHT22;9758;48.640;8.148;2024-02-14T06:12:13;12.00;56.20
19248;DHT22;9758;48.640;8.148;2024-02-14T06:14:40;12.00;56.20
19248;DHT22;9758;48.640;8.148;2024-02-14T06:17:07;12.00;56.30
19248;DHT22;9758;48.640;8.148;2024-02-14T06:19:34;12.00;56.10
19248;DHT22;9758;48.640;8.148;2024-02-14T06:22:01;12.00;56.10
19248;DHT22;9758;48.640;8.148;2024-02-14T06:24:29;12.00;56.20
19248;DHT22;9758;48.640;8.148;2024-02-14T06:26:56;12.00;56.30
19248;DHT22;9758;48.640;8.148;2024-02-14T06:29:23;12.00;56.30
19248;DHT22;9758;48.640;8.148;2024-02-14T06:31:49;12.00;56.30
19248;DHT22;9758;48.640;8.148;2024-02-14T06:34:16;12.00;56.30
19248;DHT22;9758;48.640;8.148;2024-02-14T06:36:45;12.00;56.40
19248;DHT22;9758;48.640;8.148;2024-02-14T06:39:12;12.00;56.10
19248;DHT22;9758;48.640;8.148;2024-02-14T06:41:40;12.00;56.20
19248;DHT22;9758;48.640;8.148;2024-02-14T06:44:09;12.00;56.30
19248;DHT22;9758;48.640;8.148;2024-02-14T06:46:36;12.00;56.30
19248;DHT22;9758;48.640;8.148;2024-02-14T06:49:03;12.00;56.40
19248;DHT22;9758;48.640;8.148;2024-02-14T06:51:30;12.10;56.50
19248;DHT22;9758;48.640;8.148;2024-02-14T06:53:56;12.10;56.40
19248;DHT22;9758;48.640;8.148;2024-02-14T06:56:23;12.10;56.40
19248;DHT22;9758;48.640;8.148;2024-02-14T06:58:51;12.10;56.30
19248;DHT22;9758;48.640;8.148;2024-02-14T07:01:25;12.10;56.40
19248;DHT22;9758;48.640;8.148;2024-02-14T07:03:52;12.10;56.30
19248;DHT22;9758;48.640;8.148;2024-02-14T07:06:19;12.20;56.30
19248;DHT22;9758;48.640;8.148;2024-02-14T07:08:46;12.20;56.40
19248;DHT22;9758;48.640;8.148;2024-02-14T07:11:14;12.20;56.40
19248;DHT22;9758;48.640;8.148;2024-02-14T07:13:42;12.20;56.40
19248;DHT22;9758;48.640;8.148;2024-02-14T07:16:10;12.20;56.20
19248;DHT22;9758;48.640;8.148;2024-02-14T07:18:37;12.20;56.10
19248;DHT22;9758;48.640;8.148;2024-02-14T07:21:04;12.20;56.20
19248;DHT22;9758;48.640;8.148;2024-02-14T07:23:31;12.20;56.30
19248;DHT22;9758;48.640;8.148;2024-02-14T07:25:59;12.30;56.30
19248;DHT22;9758;48.640;8.148;2024-02-14T07:28:26;12.30;56.30
19248;DHT22;9758;48.640;8.148;2024-02-14T07:30:53;12.30;56.10
19248;DHT22;9758;48.640;8.148;2024-02-14T07:33:21;12.30;56.00
19248;DHT22;9758;48.640;8.148;2024-02-14T07:35:49;12.30;56.20
19248;DHT22;9758;48.640;8.148;2024-02-14T07:38:16;12.40;56.30
19248;DHT22;9758;48.640;8.148;2024-02-14T07:40:43;12.40;56.20
19248;DHT22;9758;48.640;8.148;2024-02-14T07:43:10;12.40;56.20
19248;DHT22;9758;48.640;8.148;2024-02-14T07:45:36;12.40;56.20
19248;DHT22;9758;48.640;8.148;2024-02-14T07:48:04;12.40;56.10
19248;DHT22;9758;48.640;8.148;2024-02-14T07:50:32;12.40;56.20
19248;DHT22;9758;48.640;8.148;2024-02-14T07:52:59;12.50;56.40
19248;DHT22;9758;48.640;8.148;2024-02-14T07:55:26;12.50;56.10
19248;DHT22;9758;48.640;8.148;2024-02-14T07:57:53;12.50;56.30
19248;DHT22;9758;48.640;8.148;2024-02-14T08:00:20;12.50;56.30
19248;DHT22;9758;48.640;8.148;2024-02-14T08:02:48;12.40;56.30
19248;DHT22;9758;48.640;8.148;2024-02-14T08:05:15;12.40;56.20
19248;DHT22;9758;48.640;8.148;2024-02-14T08:07:44;12.30;56.40
19248;DHT22;9758;48.640;8.148;2024-02-14T08:10:11;12.30;56.60
19248;DHT22;9758;48.640;8.148;2024-02-14T08:12:37;12.30;57.20
19248;DHT22;9758;48.640;8.148;2024-02-14T08:15:05;12.30;56.70
19248;DHT22;9758;48.640;8.148;2024-02-14T08:17:32;12.20;56.80
19248;DHT22;9758;48.640;8.148;2024-02-14T08:20:00;12.20;56.80
19248;DHT22;9758;48.640;8.148;2024-02-14T08:22:29;12.20;56.80
19248;DHT22;9758;48.640;8.148;2024-02-14T08:24:57;12.20;56.90
19248;DHT22;9758;48.640;8.148;2024-02-14T08:27:24;12.20;57.00
19248;DHT22;9758;48.640;8.148;2024-02-14T08:29:51;12.20;57.00
19248;DHT22;9758;48.640;8.148;2024-02-14T08:32:18;12.20;57.00
19248;DHT22;9758;48.640;8.148;2024-02-14T08:34:45;12.20;57.00
19248;DHT22;9758;48.640;8.148;2024-02-14T08:37:13;12.20;57.00
19248;DHT22;9758;48.640;8.148;2024-02-14T08:39:39;12.20;57.00
19248;DHT22;9758;48.640;8.148;2024-02-14T08:42:08;12.20;57.20
19248;DHT22;9758;48.640;8.148;2024-02-14T08:44:35;12.20;57.20
19248;DHT22;9758;48.640;8.148;2024-02-14T08:47:03;12.20;57.20
19248;DHT22;9758;48.640;8.148;2024-02-14T08:49:30;12.20;57.10
19248;DHT22;9758;48.640;8.148;2024-02-14T08:51:56;12.20;57.20
19248;DHT22;9758;48.640;8.148;2024-02-14T08:54:23;12.20;57.30
19248;DHT22;9758;48.640;8.148;2024-02-14T08:56:51;12.30;57.30
19248;DHT22;9758;48.640;8.148;2024-02-14T08:59:22;12.30;57.90
19248;DHT22;9758;48.640;8.148;2024-02-14T09:01:49;12.30;57.90
19248;DHT22;9758;48.640;8.148;2024-02-14T09:04:15;12.30;57.30
19248;DHT22;9758;48.640;8.148;2024-02-14T09:06:42;12.40;57.10
19248;DHT22;9758;48.640;8.148;2024-02-14T09:09:09;12.40;57.10
19248;DHT22;9758;48.640;8.148;2024-02-14T09:11:37;12.40;57.10
19248;DHT22;9758;48.640;8.148;2024-02-14T09:14:04;12.40;57.10
19248;DHT22;9758;48.640;8.148;2024-02-14T09:16:33;12.50;57.20
19248;DHT22;9758;48.640;8.148;2024-02-14T09:19:00;12.50;57.10
19248;DHT22;9758;48.640;8.148;2024-02-14T09:21:27;12.60;57.20
19248;DHT22;9758;48.640;8.148;2024-02-14T09:23:54;12.60;57.20
19248;DHT22;9758;48.640;8.148;2024-02-14T09:26:21;12.60;57.20
19248;DHT22;9758;48.640;8.148;2024-02-14T09:28:48;12.80;57.30
19248;DHT22;9758;48.640;8.148;2024-02-14T09:31:18;12.80;57.10
19248;DHT22;9758;48.640;8.148;2024-02-14T09:33:46;12.80;57.00
19248;DHT22;9758;48.640;8.148;2024-02-14T09:36:14;12.90;57.10
19248;DHT22;9758;48.640;8.148;2024-02-14T09:38:55;12.90;57.10
19248;DHT22;9758;48.640;8.148;2024-02-14T09:41:29;12.90;57.00
19248;DHT22;9758;48.640;8.148;2024-02-14T09:43:59;13.00;57.10
19248;DHT22;9758;48.640;8.148;2024-02-14T09:46:26;13.10;57.00
19248;DHT22;9758;48.640;8.148;2024-02-14T09:48:54;13.10;57.10
19248;DHT22;9758;48.640;8.148;2024-02-14T09:51:24;13.20;57.00
19248;DHT22;9758;48.640;8.148;2024-02-14T09:53:54;13.30;57.10
19248;DHT22;9758;48.640;8.148;2024-02-14T09:56:21;13.40;57.10
19248;DHT22;9758;48.640;8.148;2024-02-14T09:58:49;13.40;57.00
19248;DHT22;9758;48.640;8.148;2024-02-14T10:01:21;13.50;57.60
19248;DHT22;9758;48.640;8.148;2024-02-14T10:03:49;13.60;57.00
19248;DHT22;9758;48.640;8.148;2024-02-14T10:06:18;13.60;56.80
19248;DHT22;9758;48.640;8.148;2024-02-14T10:08:46;13.70;56.90
19248;DHT22;9758;48.640;8.148;2024-02-14T10:11:13;13.70;56.80
19248;DHT22;9758;48.640;8.148;2024-02-14T10:13:40;13.80;56.80
19248;DHT22;9758;48.640;8.148;2024-02-14T10:16:07;13.90;56.80
19248;DHT22;9758;48.640;8.148;2024-02-14T10:18:34;14.00;56.80
19248;DHT22;9758;48.640;8.148;2024-02-14T10:21:02;14.00;56.70
19248;DHT22;9758;48.640;8.148;2024-02-14T10:23:31;14.10;56.60
19248;DHT22;9758;48.640;8.148;2024-02-14T10:25:58;14.20;56.40
19248;DHT22;9758;48.640;8.148;2024-02-14T10:28:25;14.20;56.50
19248;DHT22;9758;48.640;8.148;2024-02-14T10:30:54;14.20;56.50
19248;DHT22;9758;48.640;8.148;2024-02-14T10:33:22;14.20;56.50
19248;DHT22;9758;48.640;8.148;2024-02-14T10:35:50;14.20;56.50
19248;DHT22;9758;48.640;8.148;2024-02-14T10:38:19;14.30;56.40
19248;DHT22;9758;48.640;8.148;2024-02-14T10:40:48;14.30;56.40
19248;DHT22;9758;48.640;8.148;2024-02-14T10:43:16;14.30;56.40
19248;DHT22;9758;48.640;8.148;2024-02-14T10:45:46;14.30;56.30
19248;DHT22;9758;48.640;8.148;2024-02-14T10:48:15;14.30;56.50
19248;DHT22;9758;48.640;8.148;2024-02-14T10:50:44;14.30;56.50
19248;DHT22;9758;48.640;8.148;2024-02-14T10:53:14;14.30;56.40
19248;DHT22;9758;48.640;8.148;2024-02-14T10:55:45;14.30;56.50
19248;DHT22;9758;48.640;8.148;2024-02-14T10:58:14;14.40;56.50
19248;DHT22;9758;48.640;8.148;2024-02-14T11:00:42;14.40;56.60
19248;DHT22;9758;48.640;8.148;2024-02-14T11:03:10;14.50;56.60
19248;DHT22;9758;48.640;8.148;2024-02-14T11:05:43;14.60;56.40
19248;DHT22;9758;48.640;8.148;2024-02-14T11:08:13;14.70;56.50
19248;DHT22;9758;48.640;8.148;2024-02-14T11:10:40;14.70;56.30
19248;DHT22;9758;48.640;8.148;2024-02-14T11:13:10;14.70;56.30
19248;DHT22;9758;48.640;8.148;2024-02-14T11:15:40;14.80;56.40
19248;DHT22;9758;48.640;8.148;2024-02-14T11:18:11;14.80;56.30
19248;DHT22;9758;48.640;8.148;2024-02-14T11:20:38;14.80;56.20
19248;DHT22;9758;48.640;8.148;2024-02-14T11:23:06;14.80;56.20
19248;DHT22;9758;48.640;8.148;2024-02-14T11:25:37;14.80;56.30
19248;DHT22;9758;48.640;8.148;2024-02-14T11:28:13;14.80;56.20
19248;DHT22;9758;48.640;8.148;2024-02-14T11:30:42;14.80;56.20
19248;DHT22;9758;48.640;8.148;2024-02-14T11:33:16;14.80;56.20
19248;DHT22;9758;48.640;8.148;2024-02-14T11:35:45;14.80;56.20
19248;DHT22;9758;48.640;8.148;2024-02-14T11:38:10;14.70;56.30
19248;DHT22;9758;48.640;8.148;2024-02-14T11:40:38;14.70;56.30
19248;DHT22;9758;48.640;8.148;2024-02-14T11:43:10;14.70;56.20
19248;DHT22;9758;48.640;8.148;2024-02-14T11:45:37;14.80;56.20
19248;DHT22;9758;48.640;8.148;2024-02-14T11:48:10;14.80;56.30
19248;DHT22;9758;48.640;8.148;2024-02-14T11:50:39;14.80;56.30
19248;DHT22;9758;48.640;8.148;2024-02-14T11:53:06;14.80;56.30
19248;DHT22;9758;48.640;8.148;2024-02-14T11:55:35;14.70;56.20
19248;DHT22;9758;48.640;8.148;2024-02-14T11:58:06;14.70;56.30
19248;DHT22;9758;48.640;8.148;2024-02-14T12:00:33;14.70;56.40
19248;DHT22;9758;48.640;8.148;2024-02-14T12:03:01;14.80;56.60
19248;DHT22;9758;48.640;8.148;2024-02-14T12:05:29;14.80;56.50
19248;DHT22;9758;48.640;8.148;2024-02-14T12:07:56;14.90;56.50
19248;DHT22;9758;48.640;8.148;2024-02-14T12:10:23;14.90;56.30
19248;DHT22;9758;48.640;8.148;2024-02-14T12:12:50;15.00;56.50
19248;DHT22;9758;48.640;8.148;2024-02-14T12:15:17;15.00;56.50
19248;DHT22;9758;48.640;8.148;2024-02-14T12:17:48;15.10;56.60
19248;DHT22;9758;48.640;8.148;2024-02-14T12:20:15;15.20;56.60
19248;DHT22;9758;48.640;8.148;2024-02-14T12:22:43;15.40;56.50
19248;DHT22;9758;48.640;8.148;2024-02-14T12:25:10;15.40;56.40
19248;DHT22;9758;48.640;8.148;2024-02-14T12:27:37;15.40;56.30
19248;DHT22;9758;48.640;8.148;2024-02-14T12:30:05;15.50;56.20
19248;DHT22;9758;48.640;8.148;2024-02-14T12:32:32;15.50;56.10
19248;DHT22;9758;48.640;8.148;2024-02-14T12:34:59;15.50;56.00
19248;DHT22;9758;48.640;8.148;2024-02-14T12:37:26;15.50;56.10
19248;DHT22;9758;48.640;8.148;2024-02-14T12:39:54;15.50;56.20
19248;DHT22;9758;48.640;8.148;2024-02-14T12:42:22;15.50;56.20
19248;DHT22;9758;48.640;8.148;2024-02-14T12:44:51;15.50;56.00
19248;DHT22;9758;48.640;8.148;2024-02-14T12:47:19;15.50;56.10
19248;DHT22;9758;48.640;8.148;2024-02-14T12:49:47;15.50;56.20
19248;DHT22;9758;48.640;8.148;2024-02-14T12:52:15;15.40;56.30
19248;DHT22;9758;48.640;8.148;2024-02-14T12:54:42;15.50;56.30
19248;DHT22;9758;48.640;8.148;2024-02-14T12:57:11;15.50;56.30
19248;DHT22;9758;48.640;8.148;2024-02-14T12:59:38;15.50;56.40
19248;DHT22;9758;48.640;8.148;2024-02-14T13:02:05;15.60;56.30
19248;DHT22;9758;48.640;8.148;2024-02-14T13:04:33;15.50;56.30
19248;DHT22;9758;48.640;8.148;2024-02-14T13:07:00;15.60;56.30
19248;DHT22;9758;48.640;8.148;2024-02-14T13:09:34;15.60;56.20
19248;DHT22;9758;48.640;8.148;2024-02-14T13:12:02;15.60;56.30
19248;DHT22;9758;48.640;8.148;2024-02-14T13:14:32;15.60;56.40
19248;DHT22;9758;48.640;8.148;2024-02-14T13:16:59;15.70;56.50
19248;DHT22;9758;48.640;8.148;2024-02-14T13:19:26;15.70;56.40
19248;DHT22;9758;48.640;8.148;2024-02-14T13:21:55;15.80;56.40
19248;DHT22;9758;48.640;8.148;2024-02-14T13:24:32;15.90;56.30
19248;DHT22;9758;48.640;8.148;2024-02-14T13:27:02;16.00;56.70
19248;DHT22;9758;48.640;8.148;2024-02-14T13:29:29;16.00;56.70
19248;DHT22;9758;48.640;8.148;2024-02-14T13:31:57;16.00;56.00
19248;DHT22;9758;48.640;8.148;2024-02-14T13:34:26;15.90;56.10
19248;DHT22;9758;48.640;8.148;2024-02-14T13:36:53;16.00;56.30
19248;DHT22;9758;48.640;8.148;2024-02-14T13:39:19;16.00;56.20
19248;DHT22;9758;48.640;8.148;2024-02-14T13:41:46;16.10;56.30
19248;DHT22;9758;48.640;8.148;2024-02-14T13:44:13;16.20;56.20
19248;DHT22;9758;48.640;8.148;2024-02-14T13:46:43;16.20;56.00
19248;DHT22;9758;48.640;8.148;2024-02-14T13:49:12;16.20;55.90
19248;DHT22;9758;48.640;8.148;2024-02-14T13:51:43;16.20;55.90
19248;DHT22;9758;48.640;8.148;2024-02-14T13:54:10;16.20;55.90
19248;DHT22;9758;48.640;8.148;2024-02-14T13:56:48;16.20;56.00
19248;DHT22;9758;48.640;8.148;2024-02-14T13:59:15;16.20;56.20
19248;DHT22;9758;48.640;8.148;2024-02-14T14:01:42;16.20;56.20
19248;DHT22;9758;48.640;8.148;2024-02-14T14:04:09;16.30;56.00
19248;DHT22;9758;48.640;8.148;2024-02-14T14:06:37;16.40;56.10
19248;DHT22;9758;48.640;8.148;2024-02-14T14:09:04;16.40;55.80
19248;DHT22;9758;48.640;8.148;2024-02-14T14:11:33;16.40;55.80
19248;DHT22;9758;48.640;8.148;2024-02-14T14:14:02;16.40;55.90
19248;DHT22;9758;48.640;8.148;2024-02-14T14:16:29;16.40;55.70
19248;DHT22;9758;48.640;8.148;2024-02-14T14:18:57;16.30;55.70
19248;DHT22;9758;48.640;8.148;2024-02-14T14:21:24;16.40;55.80
19248;DHT22;9758;48.640;8.148;2024-02-14T14:23:55;16.40;55.80
19248;DHT22;9758;48.640;8.148;2024-02-14T14:26:22;16.40;55.70
19248;DHT22;9758;48.640;8.148;2024-02-14T14:28:54;16.30;55.80
19248;DHT22;9758;48.640;8.148;2024-02-14T14:31:26;16.30;55.80
19248;DHT22;9758;48.640;8.148;2024-02-14T14:33:55;16.30;55.90
19248;DHT22;9758;48.640;8.148;2024-02-14T14:36:22;16.30;55.50
19248;DHT22;9758;48.640;8.148;2024-02-14T14:38:49;16.30;55.90
19248;DHT22;9758;48.640;8.148;2024-02-14T14:41:17;16.30;56.00
19248;DHT22;9758;48.640;8.148;2024-02-14T14:43:44;16.30;55.90
19248;DHT22;9758;48.640;8.148;2024-02-14T14:46:14;16.30;55.90
19248;DHT22;9758;48.640;8.148;2024-02-14T14:48:41;16.30;55.80
19248;DHT22;9758;48.640;8.148;2024-02-14T14:51:08;16.30;55.80
19248;DHT22;9758;48.640;8.148;2024-02-14T14:53:35;16.30;55.80
19248;DHT22;9758;48.640;8.148;2024-02-14T14:56:02;16.30;55.80
19248;DHT22;9758;48.640;8.148;2024-02-14T14:58:30;16.20;55.80
19248;DHT22;9758;48.640;8.148;2024-02-14T15:01:00;16.20;55.80
19248;DHT22;9758;48.640;8.148;2024-02-14T15:03:29;16.20;55.80
19248;DHT22;9758;48.640;8.148;2024-02-14T15:05:56;16.20;55.80
19248;DHT22;9758;48.640;8.148;2024-02-14T15:08:23;16.20;55.90
19248;DHT22;9758;48.640;8.148;2024-02-14T15:10:53;16.20;55.90
19248;DHT22;9758;48.640;8.148;2024-02-14T15:13:22;16.20;55.90
19248;DHT22;9758;48.640;8.148;2024-02-14T15:15:50;16.20;56.00
19248;DHT22;9758;48.640;8.148;2024-02-14T15:18:17;16.20;55.90
19248;DHT22;9758;48.640;8.148;2024-02-14T15:20:44;16.20;55.80
19248;DHT22;9758;48.640;8.148;2024-02-14T15:23:11;16.20;55.80
19248;DHT22;9758;48.640;8.148;2024-02-14T15:25:38;16.30;55.80
19248;DHT22;9758;48.640;8.148;2024-02-14T15:28:07;16.20;55.80
19248;DHT22;9758;48.640;8.148;2024-02-14T15:30:38;16.20;55.80
19248;DHT22;9758;48.640;8.148;2024-02-14T15:33:24;16.20;56.40
19248;DHT22;9758;48.640;8.148;2024-02-14T15:35:52;16.10;56.30
19248;DHT22;9758;48.640;8.148;2024-02-14T15:38:20;16.10;55.80
19248;DHT22;9758;48.640;8.148;2024-02-14T15:40:48;16.00;55.80
19248;DHT22;9758;48.640;8.148;2024-02-14T15:43:18;16.00;55.90
19248;DHT22;9758;48.640;8.148;2024-02-14T15:45:45;16.00;55.90
19248;DHT22;9758;48.640;8.148;2024-02-14T15:48:11;16.00;56.00